• Join FlightAware (Why Join?)
  • Login
  • US Flag 
02:12PM EST


 

Airport Tracker/Info


-or-


 

Live Flight TrackerFlight Track Log ✈ AAL1071 ✈ 14-Jul-2013 ✈ KMIA - MDPC / PUJ

Flight Track Log - Related Links

Times and Time Zones

All times are in EDT time to prevent confusion due to time zone crossing. See the AAL1071 flight status page for this flight to view local times or setup timezone preferences in your user account.

Time Position Orientation Groundspeed Altitude Reporting Facility
EDT Latitude Longitude Course Direction KTS MPH feet Rate Location/Type
09:46AM 25.7990 -80.2760 61° Northeast  Level FlightAware
09:48AM 25.7990 -80.2750 90° East 10 12  Level FlightAware
09:49AM 25.8000 -80.2760 318° Northwest 29 33  Level FlightAware
09:49AM 25.8020 -80.2780 318° Northwest 29 33  Level FlightAware
09:49AM 25.8010 -80.2790 222° Southwest 16 18  Level FlightAware
09:50AM 25.8000 -80.2820 250° West 16 18  Level FlightAware
09:50AM 25.8000 -80.2840 270° West 16 18  Level FlightAware
09:52AM 25.8000 -80.2900 270° West 15 17  Level FlightAware
09:52AM 25.8000 -80.2920 270° West 15 17  Level FlightAware
09:53AM 25.8000 -80.2940 270° West 30 35  Level FlightAware
09:53AM 25.8000 -80.2960 270° West 30 35  Level FlightAware
09:53AM 25.8000 -80.2970 270° West 24 28  Level FlightAware
09:54AM 25.8000 -80.2990 270° West 18 21 60 Level FlightAware
09:55AM 25.8000 -80.3000 270° West 60 Level FlightAware
09:56AM 25.8000 -80.3010 270° West 32 37 60 Level FlightAware
09:56AM 25.8010 -80.3010 360° North 19 22 120 Level FlightAware
09:58AM 25.8010 -80.2930 90° East 110 127 120 Level FlightAware
09:58AM 25.8020 -80.2690 87° East 177 204 300 1,500 Climbing FlightAware
09:58AM 25.8040 -80.2540 82° East 174 200 1,100 2,220 Climbing FlightAware
09:59AM 25.8090 -80.2280 78° East 190 219 2,000 1,440 Climbing FlightAware
09:59AM 25.8130 -80.1990 81° East 228 262 2,500 1,260 Climbing FlightAware
10:00AM 25.8170 -80.1660 82° East 263 303 3,100 1,800 Climbing FlightAware
10:00AM 25.8200 -80.1410 82° East 272 313 3,800 2,340 Climbing FlightAware
10:01AM 25.8240 -80.1060 83° East 284 327 4,800 2,820 Climbing FlightAware
10:01AM 25.8220 -80.0430 92° East 278 320 7,100 3,000 Climbing FlightAware
10:02AM 25.8110 -80.0100 110° East 280 322 8,300 2,580 Climbing FlightAware
10:02AM 25.8010 -79.9820 112° Southeast 287 330 9,100 2,160 Climbing FlightAware
10:03AM 25.7800 -79.9210 111° Southeast 306 352 10,700 1,560 Climbing FlightAware
10:04AM 25.7560 -79.8510 111° Southeast 356 410 11,400 1,500 Climbing FlightAware
10:04AM 25.7360 -79.7930 111° Southeast 370 426 12,600 2,520 Climbing FlightAware
10:05AM 25.7110 -79.7220 111° Southeast 372 428 14,500 2,820 Climbing FlightAware
10:05AM 25.6900 -79.6650 112° Southeast 375 432 16,000 2,400 Climbing FlightAware
10:06AM 25.6650 -79.5920 111° Southeast 386 444 17,400 2,040 Climbing FlightAware
10:07AM 25.6370 -79.5100 111° Southeast 399 459 18,900 2,040 Climbing FlightAware
10:07AM 25.6070 -79.4240 111° Southeast 410 472 20,400 2,040 Climbing FlightAware
10:08AM 25.5800 -79.3490 112° Southeast 413 475 21,800 1,860 Climbing FlightAware
10:09AM 25.5540 -79.2710 110° East 425 489 22,800 1,500 Climbing FlightAware
10:09AM 25.5330 -79.1880 106° East 439 505 23,800 1,440 Climbing FlightAware
10:10AM 25.4960 -79.1000 115° Southeast 448 516 24,800 1,200 Climbing FlightAware
10:11AM 25.4440 -78.9890 117° Southeast 459 528 26,100 1,080 Climbing FlightAware
10:12AM 25.3800 -78.8510 117° Southeast 466 536 27,100 480 Climbing FlightAware
10:13AM 25.3300 -78.7420 117° Southeast 466 536 27,100  Level FlightAware
10:14AM 25.2990 -78.6750 117° Southeast 466 536 27,100  Level FlightAware
10:14AM 25.2590 -78.5890 117° Southeast 466 536 27,100  Level FlightAware
10:15AM 25.2290 -78.5240 117° Southeast 466 536 27,100 4,380 Level FlightAware
10:16AM 25.1694 -78.4111 117° Southeast 476 548 32,000 4,140 Climbing Miami Center
10:17AM 25.1039 -78.2794 119° Southeast 481 554 33,400 1,320 Climbing Miami Center
10:18AM 25.0444 -78.1503 117° Southeast 476 548 34,700 1,260 Climbing Miami Center
10:19AM 24.9828 -78.0211 118° Southeast 476 548 36,000 1,080 Climbing Miami Center
10:20AM 24.9208 -77.8947 118° Southeast 476 548 36,900 480 Climbing Miami Center
10:21AM 24.8592 -77.7681 118° Southeast 471 542 37,000  Climbing Miami Center
10:22AM 24.7972 -77.6417 118° Southeast 471 542 37,000  Level Miami Center
10:23AM 24.7331 -77.5108 118° Southeast 471 542 37,000  Level Miami Center
10:24AM 24.6728 -77.3803 117° Southeast 477 549 37,000  Level Miami Center
10:25AM 24.6106 -77.2519 118° Southeast 477 549 37,000  Level Miami Center
10:26AM 24.5481 -77.1239 118° Southeast 477 549 37,000  Level Miami Center
10:27AM 24.4878 -76.9958 117° Southeast 477 549 37,000  Level Miami Center
10:28AM 24.4272 -76.8725 118° Southeast 472 543 37,000  Level Miami Center
10:29AM 24.3644 -76.7469 119° Southeast 472 543 37,000  Level Miami Center
10:30AM 24.3014 -76.6194 118° Southeast 472 543 37,000  Level Miami Center
10:31AM 24.2428 -76.4964 118° Southeast 467 537 37,000  Level Miami Center
10:32AM 24.1797 -76.3692 118° Southeast 467 537 37,000  Level Miami Center
10:33AM 24.1144 -76.2419 119° Southeast 467 537 37,000  Level Miami Center
10:34AM 24.0511 -76.1147 119° Southeast 472 543 37,000  Level Miami Center
10:35AM 23.9897 -75.9878 118° Southeast 472 543 37,000  Level Miami Center
10:36AM 23.9264 -75.8586 118° Southeast 478 550 37,000  Level Miami Center
10:37AM 23.8606 -75.7319 120° Southeast 483 556 37,000  Level Miami Center
10:38AM 23.7906 -75.5894 118° Southeast 483 556 37,000  Level Miami Center
10:39AM 23.7244 -75.4608 119° Southeast 483 556 37,000  Level Miami Center
10:40AM 23.6586 -75.3344 120° Southeast 483 556 37,000  Level Miami Center
10:41AM 23.5944 -75.2061 119° Southeast 483 556 37,000  Level Miami Center
10:42AM 23.5303 -75.0800 119° Southeast 478 550 37,000  Level Miami Center
10:43AM 23.4642 -74.9539 120° Southeast 478 550 37,000  Level Miami Center
10:44AM 23.3975 -74.8261 120° Southeast 478 550 37,000  Level Miami Center
10:45AM 23.3372 -74.7003 118° Southeast 478 550 37,000  Level Miami Center
10:46AM 23.2686 -74.5747 121° Southeast 478 550 37,000  Level Miami Center
10:47AM 23.2039 -74.4472 119° Southeast 478 550 37,000  Level Miami Center
10:48AM 23.1392 -74.3194 119° Southeast 478 550 37,000  Level Miami Center
10:49AM 23.0744 -74.1967 120° Southeast 478 550 37,000  Level Miami Center
10:50AM 23.0072 -74.0672 119° Southeast 478 550 37,000  Level Miami Center
10:51AM 22.9358 -73.9403 121° Southeast 484 557 37,000  Level Miami Center
10:52AM 22.8728 -73.8108 118° Southeast 484 557 37,000  Level Miami Center
10:53AM 22.8033 -73.6842 121° Southeast 484 557 37,000  Level Miami Center
10:54AM 22.7508 -73.5819 119° Southeast 479 551 37,000  Level Miami Center
10:55AM 22.6769 -73.4442 120° Southeast 479 551 37,000  Level Miami Center
10:56AM 22.6092 -73.3156 120° Southeast 479 551 37,000  Level Miami Center
10:57AM 22.5414 -73.1892 120° Southeast 479 551 37,000  Level Miami Center
10:58AM 22.4819 -73.0628 117° Southeast 479 551 37,000  Level Miami Center
10:59AM 22.4142 -72.9392 121° Southeast 472 543 37,000  Level Miami Center
11:00AM 22.3483 -72.8153 120° Southeast 478 550 37,000  Level Miami Center
11:01AM 22.2800 -72.6894 120° Southeast 478 550 37,000  Level Miami Center
11:02AM 22.2117 -72.5617 120° Southeast 483 556 37,000  Level Miami Center
11:03AM 22.1478 -72.4383 119° Southeast 478 550 37,000  Level Miami Center
11:04AM 22.0792 -72.3108 120° Southeast 478 550 37,000  Level Miami Center
11:05AM 22.0108 -72.1856 120° Southeast 478 550 37,000  Level Miami Center
11:06AM 21.9442 -72.0581 119° Southeast 483 556 37,000  Level Miami Center
11:07AM 21.8736 -71.9378 122° Southeast 478 550 37,000  Level Miami Center
11:08AM 21.8092 -71.8150 119° Southeast 478 550 37,000  Level Miami Center
11:09AM 21.7444 -71.6947 120° Southeast 478 550 37,000  Level Miami Center
11:10AM 21.6778 -71.5722 120° Southeast 478 550 37,000  Level Miami Center
11:11AM 21.6108 -71.4500 120° Southeast 478 550 37,000  Level Miami Center
11:12AM 21.5439 -71.3278 120° Southeast 478 550 37,000  Level Miami Center
11:13AM 21.4789 -71.2056 120° Southeast 478 550 37,000  Level Miami Center
11:14AM 21.4117 -71.0814 120° Southeast 478 550 37,000  Level Miami Center
11:15AM 21.2833 -70.9936 147° Southeast 446 513 37,000  Level Miami Center
11:16AM 21.1792 -70.8892 137° Southeast 474 545 37,000  Level Miami Center
11:17AM 21.0772 -70.7869 137° Southeast 487 560 37,000  Level Miami Center
11:18AM 20.9797 -70.6917 138° Southeast 487 560 37,000  Level Miami Center
11:19AM 20.8819 -70.5939 137° Southeast 487 560 37,000  Level Miami Center
11:20AM 20.7822 -70.4989 138° Southeast 487 560 37,000 -1,200 Level Miami Center
11:26AM 20.1490 -69.8760 138° Southeast 488 562 28,600 -1,440 Descending FlightAware
11:26AM 20.0810 -69.8100 138° Southeast 490 564 27,400 -1,740 Descending FlightAware
11:27AM 20.0230 -69.7540 138° Southeast 495 570 26,400 -720 Descending FlightAware
11:28AM 19.9490 -69.6800 137° Southeast 495 570 26,400 -1,380 Level FlightAware
11:29AM 19.8800 -69.6090 136° Southeast 439 505 24,400 -2,040 Descending FlightAware
11:29AM 19.8160 -69.5420 135° Southeast 408 470 23,600 -900 Descending FlightAware
11:31AM 19.7170 -69.4400 136° Southeast 364 419 22,400 -1,200 Descending FlightAware
11:32AM 19.6440 -69.3780 141° Southeast 355 409 21,000 -1,740 Descending FlightAware
11:32AM 19.5910 -69.3370 144° Southeast 349 402 20,000 -1,440 Descending FlightAware
11:33AM 19.5470 -69.3030 144° Southeast 345 397 19,200 -1,500 Descending FlightAware
11:34AM 19.4900 -69.2580 143° Southeast 342 394 18,100 -1,500 Descending FlightAware
11:34AM 19.4370 -69.2170 144° Southeast 338 389 17,100 -1,500 Descending FlightAware
11:35AM 19.3860 -69.1780 144° Southeast 330 380 16,100 -1,560 Descending FlightAware
11:36AM 19.3350 -69.1380 143° Southeast 323 372 15,000 -1,560 Descending FlightAware
11:36AM 19.2860 -69.0940 140° Southeast 315 362 13,900 -1,380 Descending FlightAware
11:37AM 19.2440 -69.0520 137° Southeast 302 348 13,100 -1,200 Descending FlightAware
11:38AM 19.2030 -69.0110 137° Southeast 291 335 12,300 -1,140 Descending FlightAware
11:38AM 19.1600 -68.9810 147° Southeast 287 330 11,600 -1,080 Descending FlightAware
11:39AM 19.1160 -68.9480 145° Southeast 287 330 10,900 -1,140 Descending FlightAware
11:40AM 19.0740 -68.9170 145° Southeast 280 322 10,100 -1,320 Descending FlightAware
11:40AM 19.0400 -68.8920 145° Southeast 276 318 9,400 -1,440 Descending FlightAware
11:41AM 19.0110 -68.8710 146° Southeast 272 313 8,700 -1,380 Descending FlightAware
11:41AM 18.9810 -68.8490 145° Southeast 271 312 8,100 -1,260 Descending FlightAware
11:42AM 18.9550 -68.8300 145° Southeast 267 307 7,600 -1,320 Descending FlightAware
11:42AM 18.9250 -68.8080 145° Southeast 266 306 6,900 -1,440 Descending FlightAware
11:42AM 18.9130 -68.8000 148° Southeast 266 306 6,600 -1,440 Descending FlightAware
11:43AM 18.8840 -68.7790 146° Southeast 261 300 6,000 -1,380 Descending FlightAware
11:43AM 18.8670 -68.7660 144° Southeast 253 291 5,600 -1,260 Descending FlightAware
11:43AM 18.8440 -68.7490 145° Southeast 246 283 5,100 -840 Descending FlightAware
11:44AM 18.8190 -68.7310 146° Southeast 242 278 4,900 -300 Descending FlightAware
11:44AM 18.8010 -68.7180 146° Southeast 243 280 4,900  Level FlightAware
11:44AM 18.7880 -68.7090 147° Southeast 244 281 4,900  Level FlightAware
11:46AM 18.7300 -68.6660 145° Southeast 237 273 4,900  Level FlightAware
11:46AM 18.7010 -68.6460 147° Southeast 209 241 4,900 -360 Level FlightAware
11:47AM 18.6690 -68.6220 145° Southeast 208 239 4,600 -720 Descending FlightAware
11:47AM 18.6470 -68.6070 147° Southeast 204 235 4,200 -960 Descending FlightAware
11:47AM 18.6350 -68.5970 142° Southeast 204 235 3,900 -840 Descending FlightAware
11:48AM 18.6190 -68.5860 147° Southeast 206 237 3,700 -360 Descending FlightAware
11:48AM 18.6050 -68.5770 149° Southeast 209 241 3,700  Level FlightAware
11:49AM 18.5800 -68.5680 161° South 211 243 3,700 -120 Level FlightAware
11:49AM 18.5530 -68.5600 164° South 214 246 3,600 -660 Descending FlightAware
11:49AM 18.5310 -68.5440 145° Southeast 204 235 3,100 -1,020 Descending FlightAware
11:50AM 18.5300 -68.5370 99° East 201 231 3,000 -1,080 Descending FlightAware
11:50AM 18.5370 -68.5060 77° East 197 227 2,400 -1,080 Descending FlightAware
11:51AM 18.5430 -68.4840 74° East 179 206 2,000 -1,080 Descending FlightAware
11:51AM 18.5500 -68.4580 74° East 151 174 1,400 -960 Descending FlightAware
11:52AM 18.5550 -68.4410 73° East 147 169 1,100 -720 Descending FlightAware
11:52AM 18.5580 -68.4310 72° East 148 170 900 -780 Descending FlightAware
11:52AM 18.5620 -68.4140 76° East 145 167 600 -840 Descending FlightAware
11:53AM 18.5670 -68.3940 75° East 146 168 200 -900 Descending FlightAware
11:53AM 18.5720 -68.3770 73° East 143 165 -480 Descending FlightAware
11:54AM 18.5750 -68.3650 75° East 65 75  Level FlightAware